PWSweather.com
Personal Weather Stations
Station Observations
KCTCOLEB1
Sandy Brook, Colebrook, CT 06021

Sandy BrookColebrook, CT 06021

Lat: 42.0018, Lon: -73.0825

Elevation: 935

Station Type: Davis Vantage Pro2 + Solar + UV

Latest ConditionsUpdated 9:00:01 AM EST Sunday, Jan 22, 2017
Currently Today's Max Today's Min Today's Average
Temperature 34.6°F1.4°C 34.6°F1.4°C 31.7°F-0.2°C 32.8°F0.4°C
Dew Point 34.1°F1.2°C 34.1°F1.2°C 30.7°F-0.7°C 32.1°F0.1°C
Winds Calm Calm Calm NECalm NE - Calm Calm
Wind Gusts -- -- - -
Humidity 98% 98% 96% 97%
Pressure 29.76 in1007.8 mb 29.77 in1008.1 mb 29.74 in1007.1 mb -
Hour Temp Dew Point Humidity Winds Wind Gusts Pressure Precip Precip Rate Daily Precip Total
09:00 AM 34.6°F1.4°C 34.1°F1.2°C 98% Calm Calm -- 29.76 in1007.8 mb - 0.00 in0.0 mm 0.00 in0.0 mm
08:50 AM 34.3°F1.3°C 33.8°F1.0°C 98% Calm Calm -- 29.76 in1007.8 mb - 0.00 in0.0 mm 0.00 in0.0 mm
08:40 AM 34.2°F1.2°C 33.7°F0.9°C 98% Calm Calm -- 29.76 in1007.8 mb - 0.00 in0.0 mm 0.00 in0.0 mm
08:30 AM 34.0°F1.1°C 33.5°F0.8°C 98% Calm Calm -- 29.75 in1007.5 mb - 0.00 in0.0 mm 0.00 in0.0 mm
08:20 AM 33.9°F1.1°C 33.4°F0.8°C 98% Calm Calm -- 29.75 in1007.5 mb - 0.00 in0.0 mm 0.00 in0.0 mm
08:10 AM 33.8°F1.0°C 33.3°F0.7°C 98% Calm Calm -- 29.76 in1007.8 mb - 0.00 in0.0 mm 0.00 in0.0 mm
08:00 AM 33.7°F0.9°C 33.2°F0.7°C 98% Calm Calm -- 29.75 in1007.5 mb - 0.00 in0.0 mm 0.00 in0.0 mm
07:50 AM 33.6°F0.9°C 33.1°F0.6°C 98% Calm Calm -- 29.75 in1007.5 mb - 0.00 in0.0 mm 0.00 in0.0 mm
07:40 AM 33.6°F0.9°C 33.1°F0.6°C 98% Calm Calm -- 29.75 in1007.5 mb - 0.00 in0.0 mm 0.00 in0.0 mm
07:30 AM 33.5°F0.8°C 33.0°F0.6°C 98% Calm Calm -- 29.76 in1007.8 mb - 0.00 in0.0 mm 0.00 in0.0 mm
07:20 AM 33.4°F0.8°C 32.9°F0.5°C 98% Calm Calm -- 29.75 in1007.5 mb - 0.00 in0.0 mm 0.00 in0.0 mm
07:10 AM 33.3°F0.7°C 32.8°F0.4°C 98% Calm Calm -- 29.76 in1007.8 mb - 0.00 in0.0 mm 0.00 in0.0 mm
07:00 AM 33.2°F0.7°C 32.7°F0.4°C 98% Calm Calm -- 29.76 in1007.8 mb - 0.00 in0.0 mm 0.00 in0.0 mm
06:50 AM 33.1°F0.6°C 32.6°F0.3°C 98% Calm Calm -- 29.76 in1007.8 mb - 0.00 in0.0 mm 0.00 in0.0 mm
06:40 AM 33.1°F0.6°C 32.6°F0.3°C 98% Calm Calm -- 29.75 in1007.5 mb - 0.00 in0.0 mm 0.00 in0.0 mm
06:30 AM 33.0°F0.6°C 32.2°F0.1°C 97% Calm Calm -- 29.75 in1007.5 mb - 0.00 in0.0 mm 0.00 in0.0 mm
06:20 AM 33.0°F0.6°C 32.2°F0.1°C 97% Calm Calm -- 29.75 in1007.5 mb - 0.00 in0.0 mm 0.00 in0.0 mm
06:10 AM 32.9°F0.5°C 32.2°F0.1°C 97% Calm Calm -- 29.75 in1007.5 mb - 0.00 in0.0 mm 0.00 in0.0 mm
06:00 AM 32.9°F0.5°C 32.2°F0.1°C 97% Calm Calm -- 29.75 in1007.5 mb - 0.00 in0.0 mm 0.00 in0.0 mm
05:50 AM 32.9°F0.5°C 32.1°F0.1°C 97% Calm Calm -- 29.75 in1007.5 mb - 0.00 in0.0 mm 0.00 in0.0 mm
05:40 AM 32.9°F0.5°C 32.1°F0.1°C 97% Calm Calm -- 29.75 in1007.5 mb - 0.00 in0.0 mm 0.00 in0.0 mm
05:30 AM 32.9°F0.5°C 32.1°F0.1°C 97% Calm Calm -- 29.75 in1007.5 mb - 0.00 in0.0 mm 0.00 in0.0 mm
05:20 AM 32.9°F0.5°C 32.1°F0.1°C 97% Calm Calm -- 29.75 in1007.5 mb - 0.00 in0.0 mm 0.00 in0.0 mm
05:10 AM 32.9°F0.5°C 32.2°F0.1°C 97% Calm Calm -- 29.75 in1007.5 mb - 0.00 in0.0 mm 0.00 in0.0 mm
05:00 AM 32.9°F0.5°C 32.2°F0.1°C 97% Calm Calm -- 29.75 in1007.5 mb - 0.00 in0.0 mm 0.00 in0.0 mm
04:50 AM 33.0°F0.6°C 32.2°F0.1°C 97% Calm Calm -- 29.74 in1007.1 mb - 0.00 in0.0 mm 0.00 in0.0 mm
04:40 AM 33.0°F0.6°C 32.2°F0.1°C 97% Calm Calm -- 29.74 in1007.1 mb - 0.00 in0.0 mm 0.00 in0.0 mm
04:30 AM 33.0°F0.6°C 32.2°F0.1°C 97% Calm Calm -- 29.74 in1007.1 mb - 0.00 in0.0 mm 0.00 in0.0 mm
04:20 AM 32.9°F0.5°C 32.1°F0.1°C 97% Calm Calm -- 29.74 in1007.1 mb - 0.00 in0.0 mm 0.00 in0.0 mm
04:10 AM 32.9°F0.5°C 32.1°F0.1°C 97% Calm Calm -- 29.74 in1007.1 mb - 0.00 in0.0 mm 0.00 in0.0 mm
04:00 AM 32.8°F0.4°C 32.0°F0.0°C 97% Calm Calm -- 29.74 in1007.1 mb - 0.00 in0.0 mm 0.00 in0.0 mm
03:50 AM 32.8°F0.4°C 32.0°F0.0°C 97% Calm Calm -- 29.74 in1007.1 mb - 0.00 in0.0 mm 0.00 in0.0 mm
03:40 AM 32.7°F0.4°C 32.0°F0.0°C 97% Calm Calm -- 29.74 in1007.1 mb - 0.00 in0.0 mm 0.00 in0.0 mm
03:30 AM 32.7°F0.4°C 31.9°F-0.1°C 97% Calm Calm -- 29.74 in1007.1 mb - 0.00 in0.0 mm 0.00 in0.0 mm
03:20 AM 32.7°F0.4°C 31.9°F-0.1°C 97% Calm Calm -- 29.74 in1007.1 mb - 0.00 in0.0 mm 0.00 in0.0 mm
03:10 AM 32.6°F0.3°C 31.8°F-0.1°C 97% Calm Calm -- 29.75 in1007.5 mb - 0.00 in0.0 mm 0.00 in0.0 mm
03:00 AM 32.6°F0.3°C 31.8°F-0.1°C 97% Calm Calm -- 29.75 in1007.5 mb - 0.00 in0.0 mm 0.00 in0.0 mm
02:50 AM 32.5°F0.3°C 31.7°F-0.2°C 97% Calm Calm -- 29.75 in1007.5 mb - 0.00 in0.0 mm 0.00 in0.0 mm
02:40 AM 32.5°F0.3°C 31.7°F-0.2°C 97% Calm Calm -- 29.75 in1007.5 mb - 0.00 in0.0 mm 0.00 in0.0 mm
02:30 AM 32.4°F0.2°C 31.6°F-0.2°C 97% Calm Calm -- 29.75 in1007.5 mb - 0.00 in0.0 mm 0.00 in0.0 mm
02:20 AM 32.4°F0.2°C 31.6°F-0.2°C 97% Calm Calm -- 29.75 in1007.5 mb - 0.00 in0.0 mm 0.00 in0.0 mm
02:10 AM 32.3°F0.2°C 31.6°F-0.2°C 97% Calm Calm -- 29.75 in1007.5 mb - 0.00 in0.0 mm 0.00 in0.0 mm
02:00 AM 32.3°F0.2°C 31.5°F-0.3°C 97% Calm Calm -- 29.75 in1007.5 mb - 0.00 in0.0 mm 0.00 in0.0 mm
01:50 AM 32.2°F0.1°C 31.4°F-0.3°C 97% Calm Calm -- 29.75 in1007.5 mb - 0.00 in0.0 mm 0.00 in0.0 mm
01:40 AM 32.2°F0.1°C 31.4°F-0.3°C 97% Calm Calm -- 29.76 in1007.8 mb - 0.00 in0.0 mm 0.00 in0.0 mm
01:30 AM 32.1°F0.1°C 31.3°F-0.4°C 97% Calm Calm -- 29.76 in1007.8 mb - 0.00 in0.0 mm 0.00 in0.0 mm
01:20 AM 32.1°F0.1°C 31.3°F-0.4°C 97% Calm Calm -- 29.76 in1007.8 mb - 0.00 in0.0 mm 0.00 in0.0 mm
01:10 AM 32.0°F0.0°C 31.2°F-0.4°C 97% Calm Calm -- 29.76 in1007.8 mb - 0.00 in0.0 mm 0.00 in0.0 mm
01:00 AM 31.9°F-0.1°C 31.1°F-0.5°C 97% Calm Calm -- 29.76 in1007.8 mb - 0.00 in0.0 mm 0.00 in0.0 mm
12:50 AM 31.9°F-0.1°C 31.1°F-0.5°C 97% Calm Calm -- 29.76 in1007.8 mb - 0.00 in0.0 mm 0.00 in0.0 mm
12:40 AM 31.8°F-0.1°C 31.0°F-0.6°C 97% Calm Calm -- 29.76 in1007.8 mb - 0.00 in0.0 mm 0.00 in0.0 mm
12:30 AM 31.8°F-0.1°C 31.0°F-0.6°C 97% Calm Calm -- 29.76 in1007.8 mb - 0.00 in0.0 mm 0.00 in0.0 mm
12:20 AM 31.7°F-0.2°C 30.7°F-0.7°C 96% Calm Calm -- 29.76 in1007.8 mb - 0.00 in0.0 mm 0.00 in0.0 mm
12:10 AM 31.7°F-0.2°C 30.7°F-0.7°C 96% Calm Calm -- 29.76 in1007.8 mb - 0.00 in0.0 mm 0.00 in0.0 mm
12:00 AM 31.7°F-0.2°C 30.7°F-0.7°C 96% Calm Calm -- 29.77 in1008.1 mb - 0.00 in0.0 mm 0.00 in0.0 mm